createdAt,value
2023-02-01T07:32:43.450Z,2.75
2023-02-01T07:35:10.522Z,4.10
2023-02-01T07:37:37.520Z,3.67
2023-02-01T07:40:04.703Z,9.25
2023-02-01T07:42:31.818Z,8.85
2023-02-01T07:45:07.901Z,5.00
2023-02-01T07:47:41.983Z,4.78
2023-02-01T07:50:09.435Z,6.10
2023-02-01T07:52:36.488Z,5.57
2023-02-01T07:55:05.163Z,4.97
2023-02-01T07:57:32.146Z,3.80
2023-02-01T08:00:18.239Z,5.57
2023-02-01T08:02:45.215Z,5.78
2023-02-01T08:05:12.179Z,3.97
2023-02-01T08:07:40.445Z,4.30
2023-02-01T08:10:11.567Z,5.78
2023-02-01T08:12:39.287Z,7.53
2023-02-01T08:15:06.534Z,6.28
2023-02-01T08:17:33.532Z,3.90
2023-02-01T08:20:02.213Z,6.50
2023-02-01T08:22:33.236Z,6.53
2023-02-01T08:25:02.136Z,5.95
2023-02-01T08:27:29.261Z,3.88
2023-02-01T08:29:56.332Z,7.03
2023-02-01T08:32:23.521Z,6.18
2023-02-01T08:34:50.539Z,5.60
2023-02-01T08:37:17.609Z,3.88
2023-02-01T08:39:47.667Z,7.25
2023-02-01T08:45:43.884Z,5.22
2023-02-01T08:48:10.896Z,5.72
2023-02-01T08:50:37.944Z,5.40
2023-02-01T08:53:04.950Z,6.53
2023-02-01T08:55:33.488Z,3.50
2023-02-01T08:58:00.490Z,5.40
2023-02-01T09:00:27.648Z,3.15
2023-02-01T09:02:54.763Z,5.20
2023-02-01T09:05:23.269Z,4.50
2023-02-01T09:07:51.754Z,5.77
2023-02-01T09:10:23.541Z,4.67
2023-02-01T09:12:56.896Z,4.80
2023-02-01T09:15:23.913Z,2.55
2023-02-01T09:17:51.038Z,4.55
2023-02-01T09:20:19.777Z,4.32
2023-02-01T09:22:47.014Z,6.15
2023-02-01T09:25:14.020Z,5.60
2023-02-01T09:27:41.103Z,4.32
2023-02-01T09:30:08.433Z,3.70
2023-02-01T09:32:36.556Z,4.70
2023-02-01T09:35:03.695Z,5.65
2023-02-01T09:37:31.235Z,4.53
2023-02-01T09:39:58.829Z,5.10
2023-02-01T09:42:49.284Z,4.13
2023-02-01T09:45:22.109Z,3.30
2023-02-01T09:47:55.688Z,6.25
2023-02-01T09:50:25.291Z,5.45
2023-02-01T09:52:57.893Z,3.90
2023-02-01T09:55:37.717Z,5.72
2023-02-01T09:58:10.551Z,7.07
2023-02-01T10:00:39.398Z,5.00
2023-02-01T10:03:12.895Z,4.43
2023-02-01T10:05:46.534Z,4.60
2023-02-01T10:08:19.003Z,3.65
2023-02-01T10:10:47.678Z,5.40
2023-02-01T10:13:25.285Z,5.13
2023-02-01T10:15:56.036Z,5.80
2023-02-01T10:18:42.215Z,5.47
2023-02-01T10:21:09.244Z,6.35
2023-02-01T10:23:58.944Z,7.20
2023-02-01T10:26:31.734Z,6.35
2023-02-01T10:29:02.270Z,3.90
2023-02-01T10:31:39.150Z,8.35
2023-02-01T10:34:13.684Z,5.68
2023-02-01T10:36:42.385Z,4.57
2023-02-01T10:39:12.706Z,5.68
2023-02-01T10:45:14.286Z,7.10
2023-02-01T10:47:41.438Z,7.30
2023-02-01T10:50:15.915Z,3.80
2023-02-01T10:53:02.429Z,5.10
2023-02-01T10:55:40.087Z,5.55
2023-02-01T10:58:16.777Z,4.20
2023-02-01T11:00:48.354Z,5.25
2023-02-01T11:03:33.653Z,6.60
2023-02-01T11:06:01.076Z,6.37
2023-02-01T11:08:28.162Z,5.57
2023-02-01T11:10:59.931Z,5.82
2023-02-01T11:13:32.810Z,9.13
2023-02-01T11:15:59.962Z,5.60
2023-02-01T11:18:29.541Z,6.53
2023-02-01T11:20:57.413Z,5.22
2023-02-01T11:23:31.290Z,7.03
2023-02-01T11:26:02.939Z,6.63
2023-02-01T11:28:34.974Z,8.17
2023-02-01T11:31:03.946Z,8.57
2023-02-01T11:33:36.029Z,8.73
2023-02-01T11:36:10.469Z,9.00
2023-02-01T11:38:37.552Z,11.70
2023-02-01T11:41:14.215Z,7.10
2023-02-01T11:43:52.340Z,7.70
2023-02-01T11:46:32.596Z,5.60
2023-02-01T11:49:19.714Z,6.80
2023-02-01T11:51:59.691Z,6.03
2023-02-01T11:54:45.818Z,4.83
2023-02-01T11:57:28.391Z,6.95
2023-02-01T11:59:58.725Z,6.77
2023-02-01T12:02:47.816Z,9.80
2023-02-01T12:05:31.453Z,8.13
2023-02-01T12:08:06.324Z,10.30
2023-02-01T12:10:43.142Z,14.13
2023-02-01T12:13:16.417Z,8.23
2023-02-01T12:15:48.450Z,9.63
2023-02-01T12:18:15.480Z,10.02
2023-02-01T12:20:57.873Z,17.58
2023-02-01T12:23:57.143Z,15.35
2023-02-01T12:30:11.550Z,15.55
2023-02-01T12:33:05.235Z,16.63
2023-02-01T12:35:51.098Z,25.15
2023-02-01T12:38:34.732Z,12.27
2023-02-01T12:41:14.022Z,20.55
2023-02-01T12:43:49.962Z,21.17
2023-02-01T12:46:18.560Z,16.45
2023-02-01T12:48:45.531Z,16.60
2023-02-01T12:51:15.876Z,14.52
2023-02-01T12:53:48.424Z,15.18
2023-02-01T12:56:18.217Z,13.90
2023-02-01T12:58:56.692Z,11.68
2023-02-01T13:01:23.670Z,18.00
2023-02-01T13:04:12.306Z,12.93
2023-02-01T13:06:41.513Z,11.40
2023-02-01T13:09:20.663Z,9.75
2023-02-01T13:11:48.609Z,12.83
2023-02-01T13:14:37.873Z,14.65
2023-02-01T13:17:06.440Z,9.27
2023-02-01T13:19:46.456Z,12.52
2023-02-01T13:22:19.316Z,10.48
2023-02-01T13:24:48.606Z,11.68
2023-02-01T13:27:18.009Z,13.18
2023-02-01T13:29:52.951Z,16.15
2023-02-01T13:32:23.035Z,10.25
2023-02-01T13:35:19.854Z,9.98
2023-02-01T13:37:46.883Z,8.13
2023-02-01T13:40:21.506Z,10.80
2023-02-01T13:42:57.065Z,11.13
2023-02-01T13:45:26.640Z,11.45
2023-02-01T13:47:55.524Z,15.25
2023-02-01T13:50:34.953Z,8.77
2023-02-01T13:53:05.930Z,8.40
2023-02-01T13:55:32.976Z,12.38
2023-02-01T13:58:23.044Z,9.30
2023-02-01T14:00:54.448Z,9.90
2023-02-01T14:03:22.869Z,11.63
2023-02-01T14:05:52.865Z,6.70
2023-02-01T14:08:48.053Z,11.95
2023-02-01T14:11:35.066Z,8.70
2023-02-01T14:14:08.977Z,8.30
2023-02-01T14:16:35.988Z,7.72
2023-02-01T14:19:04.144Z,9.43
2023-02-01T14:21:32.935Z,5.55
2023-02-01T14:24:12.161Z,5.65
2023-02-01T14:26:39.179Z,6.85
2023-02-01T14:29:22.301Z,6.13
2023-02-01T14:32:03.328Z,5.97
2023-02-01T14:34:43.869Z,4.25
2023-02-01T14:37:21.659Z,5.68
2023-02-01T14:39:48.597Z,7.50
2023-02-01T14:42:22.787Z,5.47
2023-02-01T14:44:58.871Z,8.27
2023-02-01T14:47:27.051Z,30.20
2023-02-01T14:49:56.896Z,23.53
2023-02-01T14:52:26.916Z,18.17
2023-02-01T14:54:58.951Z,18.23
2023-02-01T14:57:28.030Z,19.30
2023-02-01T15:00:17.908Z,14.90
2023-02-01T15:02:45.236Z,10.63
2023-02-01T15:05:26.583Z,14.07
